Time;durP1;ratioP1;P1;durP2;ratioP2;P2;SDS_P1;SDS_P2;PMS_P1;PMS_P2;Temp;Humidity;BMP_temperature;BMP_pressure;BME280_temperature;BME280_humidity;BME280_pressure;Samples;Min_cycle;Max_cycle;Signal;HPM_P1;HPM_P2
2022/05/09 00:01:24;;;;;;;9.52;6.60;;;;;;;11.01;100.00;99478.81;5039764;28;20585;-64
2022/05/09 00:03:49;;;;;;;10.18;7.82;;;;;;;11.02;100.00;99475.88;5046043;28;20052;-64
2022/05/09 00:06:14;;;;;;;14.25;8.27;;;;;;;10.93;100.00;99474.34;5050761;28;20025;-64
2022/05/09 00:08:42;;;;;;;14.27;8.15;;;;;;;10.78;100.00;99462.69;5051574;28;20023;-64
2022/05/09 00:11:08;;;;;;;10.88;8.05;;;;;;;10.97;100.00;99478.31;5050845;28;20475;-64
2022/05/09 00:13:33;;;;;;;12.80;8.85;;;;;;;11.06;100.00;99476.38;5046922;28;20039;-64
2022/05/09 00:15:58;;;;;;;12.65;8.30;;;;;;;10.86;100.00;99449.88;5050771;28;20393;-65
2022/05/09 00:18:24;;;;;;;11.43;7.80;;;;;;;10.90;100.00;99445.78;5043177;28;20382;-64
2022/05/09 00:20:49;;;;;;;9.02;6.95;;;;;;;10.88;100.00;99471.34;5049799;28;20040;-64
2022/05/09 00:23:14;;;;;;;9.85;7.63;;;;;;;10.78;100.00;99478.91;5050010;28;20386;-64
2022/05/09 00:25:39;;;;;;;9.23;6.88;;;;;;;10.71;100.00;99478.81;5049862;28;20036;-63
2022/05/09 00:28:06;;;;;;;9.90;7.30;;;;;;;10.67;100.00;99470.25;5050346;28;20076;-65
2022/05/09 00:30:31;;;;;;;9.93;7.35;;;;;;;10.62;100.00;99474.53;5050437;28;20048;-65
2022/05/09 00:32:57;;;;;;;13.23;8.10;;;;;;;10.59;100.00;99467.66;5049831;28;20079;-64
2022/05/09 00:35:22;;;;;;;12.18;7.07;;;;;;;10.47;100.00;99455.59;5052110;28;20116;-64
2022/05/09 00:37:48;;;;;;;11.75;7.30;;;;;;;10.31;100.00;99453.91;5053727;28;20033;-64
2022/05/09 00:40:16;;;;;;;9.40;7.35;;;;;;;10.28;100.00;99454.28;5054016;28;20117;-65
2022/05/09 00:42:48;;;;;;;10.93;7.97;;;;;;;10.31;100.00;99472.84;5043924;28;20024;-63
2022/05/09 00:45:14;;;;;;;9.00;7.40;;;;;;;10.25;100.00;99478.97;5055094;28;20028;-64
2022/05/09 00:47:40;;;;;;;10.05;7.78;;;;;;;10.22;100.00;99476.66;5053449;28;20021;-65
2022/05/09 00:50:08;;;;;;;13.10;8.32;;;;;;;10.19;100.00;99475.16;5050917;28;20040;-64
2022/05/09 00:52:44;;;;;;;12.98;8.35;;;;;;;10.21;100.00;99467.66;5051991;28;20021;-64
2022/05/09 00:55:18;;;;;;;11.40;7.80;;;;;;;10.35;100.00;99474.19;5053304;28;20061;-64
2022/05/09 00:57:53;;;;;;;13.90;8.48;;;;;;;10.23;100.00;99444.00;5046608;28;20075;-65
2022/05/09 01:00:21;;;;;;;10.93;7.60;;;;;;;10.41;100.00;99467.19;5054193;28;20048;-64
2022/05/09 01:02:51;;;;;;;10.83;7.63;;;;;;;10.36;100.00;99469.59;5053491;28;20016;-64
2022/05/09 01:05:17;;;;;;;13.70;8.38;;;;;;;10.50;100.00;99472.28;5050924;28;20025;-64
2022/05/09 01:07:43;;;;;;;12.63;7.80;;;;;;;10.28;100.00;99463.25;5053776;28;20527;-65
2022/05/09 01:10:10;;;;;;;15.25;8.73;;;;;;;10.17;100.00;99436.63;5052608;28;20032;-64
2022/05/09 01:12:37;;;;;;;13.02;8.07;;;;;;;10.35;100.00;99478.72;5048699;28;20031;-64
2022/05/09 01:15:06;;;;;;;11.63;7.60;;;;;;;10.33;100.00;99472.69;5044625;28;20040;-63
2022/05/09 01:17:32;;;;;;;11.80;8.13;;;;;;;10.13;100.00;99448.81;5043376;28;20094;-65
2022/05/09 01:20:00;;;;;;;13.13;9.05;;;;;;;10.31;100.00;99464.75;5040253;28;20494;-64
2022/05/09 01:22:28;;;;;;;21.02;10.32;;;;;;;10.37;100.00;99465.84;5053921;28;20037;-64
2022/05/09 01:24:55;;;;;;;18.00;11.35;;;;;;;10.48;100.00;99471.66;5049460;28;20052;-64
2022/05/09 01:27:21;;;;;;;14.75;10.55;;;;;;;10.32;100.00;99439.34;5050939;28;20075;-64
2022/05/09 01:30:12;;;;;;;13.40;9.82;;;;;;;10.46;100.00;99470.16;5044110;28;20029;-64
2022/05/09 01:32:47;;;;;;;16.48;10.57;;;;;;;10.50;100.00;99466.88;5051465;28;20021;-64
2022/05/09 01:35:12;;;;;;;17.95;10.93;;;;;;;10.51;100.00;99462.34;5051218;28;20079;-65
2022/05/09 01:37:40;;;;;;;17.15;11.80;;;;;;;10.52;100.00;99470.25;5051938;28;20417;-64
2022/05/09 01:40:10;;;;;;;19.02;11.73;;;;;;;10.19;100.00;99426.47;5052397;28;20030;-64
2022/05/09 01:42:36;;;;;;;19.15;11.82;;;;;;;10.56;100.00;99468.03;5047781;28;20021;-64
2022/05/09 01:45:03;;;;;;;16.00;9.80;;;;;;;10.48;100.00;99460.84;5050816;28;20429;-64
2022/05/09 01:50:12;;;;;;;17.83;10.15;;;;;;;10.46;100.00;99457.47;5049059;28;20109;-64
2022/05/09 01:52:39;;;;;;;12.15;8.90;;;;;;;10.28;100.00;99457.00;5051537;28;20485;-65
2022/05/09 01:55:05;;;;;;;13.60;8.80;;;;;;;10.18;100.00;99468.03;5045159;28;20052;-64
2022/05/09 01:57:30;;;;;;;12.95;8.38;;;;;;;10.14;100.00;99450.53;5048147;28;20029;-64
2022/05/09 01:59:55;;;;;;;13.57;8.65;;;;;;;9.98;100.00;99445.25;5053355;28;20367;-64
2022/05/09 02:02:21;;;;;;;14.52;9.45;;;;;;;10.01;100.00;99453.03;5054199;28;20032;-64
2022/05/09 02:08:08;;;;;;;13.00;9.15;;;;;;;9.95;100.00;99456.44;5046022;28;20543;-64
2022/05/09 02:10:34;;;;;;;13.02;8.73;;;;;;;9.95;100.00;99478.91;5048050;28;20025;-63
2022/05/09 02:12:59;;;;;;;13.77;9.02;;;;;;;9.91;100.00;99479.47;5024678;28;20028;-64
2022/05/09 02:15:31;;;;;;;15.25;8.65;;;;;;;9.81;100.00;99477.84;5051714;28;20082;-64
2022/05/09 02:17:56;;;;;;;13.65;7.97;;;;;;;9.85;100.00;99473.78;5052103;28;20025;-65
2022/05/09 02:20:21;;;;;;;11.80;8.32;;;;;;;9.73;100.00;99477.91;5038912;28;20033;-64
2022/05/09 02:22:47;;;;;;;11.63;8.27;;;;;;;9.52;100.00;99462.38;5053265;28;20032;-64
2022/05/09 02:25:29;;;;;;;16.88;9.00;;;;;;;9.56;100.00;99477.22;5052766;28;20498;-64
2022/05/09 02:27:58;;;;;;;11.90;8.80;;;;;;;9.50;100.00;99468.97;5053144;28;20050;-65
2022/05/09 02:30:24;;;;;;;13.20;8.38;;;;;;;9.31;100.00;99438.72;5047872;28;20013;-64
2022/05/09 02:32:50;;;;;;;11.57;8.50;;;;;;;9.57;100.00;99459.97;5052204;28;20036;-64
2022/05/09 02:35:16;;;;;;;14.10;8.82;;;;;;;9.68;100.00;99476.78;5051301;28;20032;-64
2022/05/09 02:37:41;;;;;;;13.95;8.60;;;;;;;9.66;100.00;99480.50;5048889;28;20028;-64
2022/05/09 02:40:07;;;;;;;15.63;8.65;;;;;;;9.58;100.00;99474.31;5041889;28;20127;-64
2022/05/09 02:42:34;;;;;;;14.90;8.95;;;;;;;9.65;100.00;99484.22;5043375;28;20040;-64
2022/05/09 02:44:59;;;;;;;12.55;8.80;;;;;;;9.47;100.00;99472.03;5047988;28;20497;-64
2022/05/09 02:47:26;;;;;;;15.32;8.98;;;;;;;9.56;100.00;99484.47;5046820;28;20028;-64
2022/05/09 02:49:51;;;;;;;11.77;8.38;;;;;;;9.40;100.00;99478.16;5052899;28;20418;-63
2022/05/09 02:52:16;;;;;;;15.10;8.85;;;;;;;9.41;100.00;99493.34;5053148;28;20101;-66
2022/05/09 02:54:42;;;;;;;13.43;9.77;;;;;;;9.34;100.00;99484.28;5051339;28;20035;-65
2022/05/09 02:57:08;;;;;;;13.57;9.77;;;;;;;9.29;100.00;99478.56;5047267;28;20039;-64
2022/05/09 02:59:34;;;;;;;14.25;9.68;;;;;;;9.20;100.00;99479.66;5044330;28;20048;-65
2022/05/09 03:02:01;;;;;;;17.23;10.00;;;;;;;9.21;100.00;99478.63;5049765;28;20108;-64
2022/05/09 03:04:39;;;;;;;14.02;10.00;;;;;;;9.19;100.00;99483.34;5048159;28;20102;-64
2022/05/09 03:07:11;;;;;;;16.70;10.25;;;;;;;9.15;100.00;99482.88;5046437;28;20112;-64
2022/05/09 03:09:38;;;;;;;14.02;10.13;;;;;;;9.25;100.00;99485.34;5047816;28;20394;-64
2022/05/09 03:12:07;;;;;;;16.63;9.80;;;;;;;9.28;100.00;99476.06;5051415;28;20100;-64
2022/05/09 03:14:33;;;;;;;14.20;9.45;;;;;;;9.15;100.00;99463.16;5040552;28;20413;-65
2022/05/09 03:16:58;;;;;;;13.98;10.13;;;;;;;9.06;100.00;99464.19;5049381;28;20075;-69
2022/05/09 03:19:26;;;;;;;15.68;9.63;;;;;;;9.13;100.00;99475.97;5043772;28;20378;-71
2022/05/09 03:21:53;;;;;;;13.05;8.63;;;;;;;8.97;100.00;99471.50;5050192;28;20031;-70
2022/05/09 03:24:19;;;;;;;13.73;9.95;;;;;;;8.77;100.00;99441.41;5050823;28;20020;-72
2022/05/09 03:26:44;;;;;;;13.27;9.93;;;;;;;8.94;100.00;99485.34;5048188;28;20073;-70
2022/05/09 03:29:10;;;;;;;12.73;9.30;;;;;;;8.94;100.00;99480.78;5049658;28;20051;-70
2022/05/09 03:31:36;;;;;;;17.17;9.55;;;;;;;8.86;100.00;99453.84;5049923;28;20467;-70
2022/05/09 03:34:01;;;;;;;17.25;9.43;;;;;;;8.99;100.00;99467.63;5049894;28;20031;-70
2022/05/09 03:36:26;;;;;;;12.80;9.05;;;;;;;9.00;100.00;99485.47;5051667;28;20029;-69
2022/05/09 03:38:52;;;;;;;13.30;8.70;;;;;;;8.83;100.00;99477.63;5083503;22;20041;-71
2022/05/09 03:41:17;;;;;;;14.25;9.30;;;;;;;8.73;100.00;99473.31;5063148;28;20074;-70
2022/05/09 03:43:42;;;;;;;13.05;9.43;;;;;;;8.71;100.00;99479.88;5059920;28;20602;-71
2022/05/09 03:46:07;;;;;;;13.07;8.82;;;;;;;8.69;100.00;99487.31;5063786;28;20035;-71
2022/05/09 03:48:33;;;;;;;13.20;9.32;;;;;;;8.46;100.00;99461.09;5066981;28;20134;-71
2022/05/09 03:51:01;;;;;;;13.00;9.20;;;;;;;8.54;100.00;99469.16;5064708;28;20032;-72
2022/05/09 03:53:26;;;;;;;12.25;8.93;;;;;;;8.65;100.00;99480.59;5063243;28;20032;-72
2022/05/09 03:55:52;;;;;;;14.70;9.23;;;;;;;8.57;100.00;99478.75;5058115;28;20036;-71
2022/05/09 03:58:17;;;;;;;17.15;10.77;;;;;;;8.63;100.00;99493.41;5085952;28;20478;-70
2022/05/09 04:00:43;;;;;;;17.13;10.65;;;;;;;8.74;100.00;99496.56;5068525;28;20136;-71
2022/05/09 04:03:09;;;;;;;13.70;10.48;;;;;;;8.94;100.00;99499.69;5068060;28;20367;-70
2022/05/09 04:05:35;;;;;;;15.98;11.32;;;;;;;9.05;100.00;99490.34;5068577;28;20035;-71
2022/05/09 04:08:05;;;;;;;15.65;10.75;;;;;;;9.10;100.00;99498.75;5069586;28;20035;-71
2022/05/09 04:10:33;;;;;;;19.70;10.95;;;;;;;9.19;100.00;99494.97;5066863;28;20031;-70
2022/05/09 04:12:59;;;;;;;20.08;11.30;;;;;;;9.28;100.00;99493.09;5057798;28;20017;-71
2022/05/09 04:18:10;;;;;;;14.85;10.40;;;;;;;9.23;100.00;99495.50;5063515;28;20159;-71
2022/05/09 04:20:37;;;;;;;14.57;10.27;;;;;;;9.14;100.00;99501.94;5067923;28;20115;-70
2022/05/09 04:23:03;;;;;;;14.75;10.73;;;;;;;9.06;100.00;99500.13;5066465;28;20061;-72
2022/05/09 04:25:33;;;;;;;14.63;10.48;;;;;;;9.09;100.00;99509.72;5061931;28;20501;-67
2022/05/09 04:28:06;;;;;;;14.82;10.38;;;;;;;9.14;100.00;99502.81;5062658;28;20060;-70
2022/05/09 04:30:35;;;;;;;19.30;10.57;;;;;;;9.27;100.00;99504.91;5071656;28;20103;-70
2022/05/09 04:33:01;;;;;;;16.25;10.85;;;;;;;9.35;100.00;99502.19;5059591;28;20028;-70
2022/05/09 04:35:28;;;;;;;18.75;10.25;;;;;;;9.43;100.00;99504.81;5072645;28;20020;-65
2022/05/09 04:37:54;;;;;;;14.50;10.05;;;;;;;9.50;100.00;99502.22;5063893;28;20025;-64
2022/05/09 04:40:23;;;;;;;17.38;11.05;;;;;;;9.65;100.00;99513.13;5054835;28;20972;-68
2022/05/09 04:42:48;;;;;;;14.27;10.32;;;;;;;9.73;100.00;99510.34;5052392;28;20032;-67
2022/05/09 04:45:15;;;;;;;14.68;10.70;;;;;;;9.81;100.00;99512.16;5069908;28;20611;-68
2022/05/09 04:47:42;;;;;;;18.08;10.02;;;;;;;10.02;100.00;99514.16;5068414;28;20044;-72
2022/05/09 04:50:09;;;;;;;16.20;9.52;;;;;;;10.15;100.00;99517.09;5069530;28;20024;-72
2022/05/09 04:52:35;;;;;;;13.00;9.70;;;;;;;10.20;100.00;99511.97;5067045;28;20017;-73
2022/05/09 04:55:01;;;;;;;13.45;9.98;;;;;;;10.23;100.00;99506.19;5069323;28;20031;-74
2022/05/09 04:57:26;;;;;;;12.32;8.57;;;;;;;10.43;100.00;99514.66;5075271;28;20037;-65
2022/05/09 04:59:51;;;;;;;11.55;8.40;;;;;;;10.59;100.00;99521.75;5062681;28;20028;-71
2022/05/09 05:02:16;;;;;;;16.35;9.30;;;;;;;10.67;100.00;99524.38;5063006;28;20024;-70
2022/05/09 05:04:43;;;;;;;15.45;9.35;;;;;;;10.79;100.00;99529.31;5052333;28;20043;-73
2022/05/09 05:07:09;;;;;;;13.90;9.38;;;;;;;10.89;100.00;99519.03;5055406;28;20021;-73
2022/05/09 05:09:35;;;;;;;11.63;8.25;;;;;;;10.90;100.00;99518.03;5059526;28;20479;-69
2022/05/09 05:12:01;;;;;;;14.90;8.88;;;;;;;11.07;100.00;99524.06;5053682;28;20025;-72
2022/05/09 05:14:26;;;;;;;14.27;8.65;;;;;;;11.32;100.00;99527.31;5064140;28;20024;-73
2022/05/09 05:17:01;;;;;;;13.90;9.48;;;;;;;11.30;100.00;99522.06;5071089;28;20092;-71
2022/05/09 05:19:31;;;;;;;17.85;10.35;;;;;;;11.50;100.00;99516.03;5065774;28;20032;-72
2022/05/09 05:21:59;;;;;;;14.63;9.68;;;;;;;11.62;100.00;99520.75;5078680;28;20040;-68
2022/05/09 05:24:25;;;;;;;14.05;9.05;;;;;;;11.72;100.00;99527.75;5072047;28;20025;-70
2022/05/09 05:26:52;;;;;;;14.20;9.27;;;;;;;11.89;100.00;99525.63;5071641;28;20127;-72
2022/05/09 05:29:17;;;;;;;14.73;10.18;;;;;;;12.03;97.81;99513.88;5058391;28;20055;-75
2022/05/09 05:31:43;;;;;;;12.35;8.27;;;;;;;12.37;97.73;99532.09;5066739;28;20358;-70
2022/05/09 05:34:08;;;;;;;11.63;8.93;;;;;;;12.63;95.69;99523.31;5073541;28;20481;-71
2022/05/09 05:36:33;;;;;;;12.10;9.30;;;;;;;12.94;95.32;99531.03;5061400;28;20029;-70
2022/05/09 05:38:59;;;;;;;13.02;8.77;;;;;;;13.21;94.67;99531.13;5086050;28;20044;-68
2022/05/09 05:41:24;;;;;;;10.23;7.50;;;;;;;13.39;94.13;99538.78;5061886;28;20025;-70
2022/05/09 05:43:49;;;;;;;13.48;8.27;;;;;;;13.53;91.00;99537.75;5068963;28;20074;-71
2022/05/09 05:46:15;;;;;;;11.48;7.97;;;;;;;13.64;90.33;99533.59;5060238;28;20029;-70
2022/05/09 05:48:41;;;;;;;10.52;7.82;;;;;;;13.93;89.42;99545.16;5066289;28;22114;-71
2022/05/09 05:51:06;;;;;;;11.05;8.60;;;;;;;14.20;86.18;99540.59;5068025;28;20102;-72
2022/05/09 05:53:32;;;;;;;12.32;8.00;;;;;;;14.40;83.51;99518.81;5065596;28;20031;-73
2022/05/09 05:55:57;;;;;;;11.75;8.60;;;;;;;14.74;84.22;99544.16;5064762;28;20029;-72
2022/05/09 05:58:26;;;;;;;9.73;7.72;;;;;;;14.77;84.09;99519.22;5071532;28;20029;-71
2022/05/09 06:00:52;;;;;;;10.50;7.82;;;;;;;15.08;83.12;99543.03;5063822;28;20098;-67
2022/05/09 06:03:20;;;;;;;15.38;8.43;;;;;;;15.25;80.96;99532.50;5066844;28;20470;-68
2022/05/09 06:05:45;;;;;;;19.40;8.45;;;;;;;15.37;80.21;99530.75;5061663;28;20028;-74
2022/05/09 06:08:10;;;;;;;12.10;8.38;;;;;;;15.53;78.98;99541.16;5055477;28;20540;-74
2022/05/09 06:10:36;;;;;;;11.15;8.70;;;;;;;15.56;78.21;99535.28;5071437;28;20012;-74
2022/05/09 06:13:03;;;;;;;10.73;8.27;;;;;;;15.65;76.09;99532.28;5074722;28;20555;-70
2022/05/09 06:15:29;;;;;;;11.80;7.75;;;;;;;16.05;75.70;99542.97;5075785;28;20405;-74
2022/05/09 06:17:57;;;;;;;10.13;7.90;;;;;;;16.66;73.17;99539.50;5086428;28;20028;-74
2022/05/09 06:20:23;;;;;;;12.07;7.90;;;;;;;17.15;71.13;99554.19;5070947;28;20020;-76
2022/05/09 06:22:48;;;;;;;14.98;7.72;;;;;;;17.62;69.58;99554.44;5063216;28;20390;-76
2022/05/09 06:25:17;;;;;;;9.05;7.38;;;;;;;18.86;64.23;99539.25;5075273;28;20478;-75
2022/05/09 06:27:42;;;;;;;9.43;7.13;;;;;;;20.22;59.60;99534.03;5093069;28;20374;-74
2022/05/09 06:30:11;;;;;;;9.60;6.78;;;;;;;21.54;53.96;99544.56;5057299;28;20298;-77
2022/05/09 06:32:37;;;;;;;11.35;6.90;;;;;;;23.09;48.94;99540.97;5068627;28;20370;-75
2022/05/09 06:35:05;;;;;;;9.40;6.70;;;;;;;24.23;46.04;99538.34;5072136;28;20029;-75
2022/05/09 06:37:33;;;;;;;9.93;6.65;;;;;;;25.63;43.26;99521.19;5071353;28;20028;-75
2022/05/09 06:39:59;;;;;;;11.77;6.78;;;;;;;26.14;40.88;99529.19;5069972;28;20412;-72
2022/05/09 06:42:24;;;;;;;8.77;6.70;;;;;;;25.75;41.57;99526.38;5084418;28;20029;-74
2022/05/09 06:44:49;;;;;;;7.65;5.97;;;;;;;26.24;40.93;99548.53;5086605;28;20482;-71
2022/05/09 06:47:14;;;;;;;9.90;6.22;;;;;;;27.27;39.57;99534.59;5071121;28;20037;-74
2022/05/09 06:49:40;;;;;;;7.97;6.38;;;;;;;27.86;38.51;99539.97;5080299;28;20526;-71
2022/05/09 06:52:05;;;;;;;9.13;5.63;;;;;;;28.61;37.92;99528.78;5068729;28;20020;-76
2022/05/09 06:54:31;;;;;;;7.82;5.80;;;;;;;28.32;36.90;99536.47;5064645;28;20063;-74
2022/05/09 06:56:56;;;;;;;7.07;5.53;;;;;;;28.81;38.07;99529.53;5065413;28;20025;-75
2022/05/09 06:59:21;;;;;;;10.85;5.20;;;;;;;29.71;35.79;99532.78;5067331;28;20117;-72
2022/05/09 07:01:50;;;;;;;9.38;5.03;;;;;;;29.84;34.59;99534.75;5071076;28;20028;-78
2022/05/09 07:04:16;;;;;;;4.90;4.38;;;;;;;30.88;33.33;99531.94;5072455;28;20488;-74
2022/05/09 07:06:41;;;;;;;6.95;5.25;;;;;;;30.98;32.57;99536.44;5076171;28;20540;-73
2022/05/09 07:09:10;;;;;;;6.50;4.53;;;;;;;30.66;32.60;99530.00;5063866;28;20028;-73
2022/05/09 07:11:36;;;;;;;4.78;4.38;;;;;;;30.84;33.45;99538.50;5075039;28;20096;-74
2022/05/09 07:14:01;;;;;;;8.25;5.10;;;;;;;30.78;32.55;99537.78;5065020;28;20033;-68
2022/05/09 07:16:26;;;;;;;5.57;4.05;;;;;;;30.59;32.83;99540.78;5067058;28;20031;-68
2022/05/09 07:18:52;;;;;;;5.25;4.68;;;;;;;30.19;32.68;99534.22;5061610;28;20044;-70
2022/05/09 07:21:17;;;;;;;5.95;4.65;;;;;;;31.36;32.23;99535.91;5075201;28;20028;-70
2022/05/09 07:23:42;;;;;;;5.53;4.55;;;;;;;31.42;31.68;99540.28;5089212;28;20024;-74
2022/05/09 07:26:08;;;;;;;5.60;4.30;;;;;;;32.12;30.71;99537.59;5091993;28;20101;-70
2022/05/09 07:28:33;;;;;;;5.70;4.25;;;;;;;31.90;30.85;99533.78;5079475;28;20032;-69
2022/05/09 07:30:59;;;;;;;4.18;3.35;;;;;;;32.67;30.20;99528.50;5080993;28;20029;-70
2022/05/09 07:33:25;;;;;;;4.97;3.60;;;;;;;32.37;29.81;99533.97;5077656;28;20028;-72
2022/05/09 07:35:51;;;;;;;6.15;4.45;;;;;;;32.08;31.18;99529.84;5080029;28;20111;-72
2022/05/09 07:38:16;;;;;;;5.75;4.13;;;;;;;31.64;30.69;99536.53;5068680;28;20111;-72
2022/05/09 07:40:44;;;;;;;4.30;3.78;;;;;;;32.29;30.21;99532.00;5065611;28;20020;-68
2022/05/09 07:43:12;;;;;;;6.45;4.70;;;;;;;31.83;30.55;99537.06;5069037;28;20036;-68
2022/05/09 07:45:38;;;;;;;8.48;4.65;;;;;;;32.16;30.89;99541.41;5062714;28;20029;-71
2022/05/09 07:48:03;;;;;;;4.72;4.30;;;;;;;32.30;29.41;99516.84;5055187;28;20094;-75
2022/05/09 07:50:29;;;;;;;5.25;4.35;;;;;;;31.30;30.77;99542.81;5064233;28;20017;-69
2022/05/09 07:52:54;;;;;;;4.75;3.72;;;;;;;33.93;28.68;99535.41;5061682;28;20060;-69
2022/05/09 07:55:19;;;;;;;4.63;3.77;;;;;;;33.12;29.13;99528.91;5066661;28;20029;-72
2022/05/09 07:57:44;;;;;;;5.20;3.70;;;;;;;33.17;28.67;99527.91;5063291;28;20282;-75
2022/05/09 08:00:10;;;;;;;7.03;3.50;;;;;;;33.24;29.47;99530.97;5062095;28;20021;-76
2022/05/09 08:02:40;;;;;;;4.70;3.65;;;;;;;34.33;28.17;99531.28;5068226;28;20271;-70
2022/05/09 08:05:06;;;;;;;4.93;3.70;;;;;;;33.77;28.10;99529.56;5069288;28;20021;-67
2022/05/09 08:07:32;;;;;;;4.22;3.63;;;;;;;33.76;28.10;99535.50;5071137;28;20448;-67
2022/05/09 08:09:57;;;;;;;5.87;3.97;;;;;;;32.66;29.17;99536.09;5065396;28;20033;-71
2022/05/09 08:12:22;;;;;;;4.30;3.40;;;;;;;33.87;27.72;99531.13;5064334;28;20363;-73
2022/05/09 08:14:48;;;;;;;7.75;4.05;;;;;;;33.78;28.77;99533.19;5069220;28;20305;-72
2022/05/09 08:17:13;;;;;;;4.18;3.75;;;;;;;33.68;27.81;99534.41;5065121;28;20051;-71
2022/05/09 08:19:39;;;;;;;5.57;3.40;;;;;;;33.99;27.59;99530.41;5065007;28;20024;-71
2022/05/09 08:22:07;;;;;;;8.27;3.15;;;;;;;34.54;27.55;99525.63;5054163;28;20628;-69
2022/05/09 08:24:33;;;;;;;4.45;3.70;;;;;;;32.38;28.97;99521.59;5063771;28;20053;-72
2022/05/09 08:26:58;;;;;;;4.22;3.30;;;;;;;34.61;27.41;99525.91;5057498;28;20045;-72
2022/05/09 08:29:24;;;;;;;4.22;3.17;;;;;;;34.52;27.45;99517.53;5065122;28;20035;-70
2022/05/09 08:31:49;;;;;;;5.83;3.60;;;;;;;33.68;28.34;99520.38;5061889;28;20032;-69
2022/05/09 08:34:15;;;;;;;4.18;3.28;;;;;;;34.10;28.25;99522.41;5066247;28;20289;-70
2022/05/09 08:36:48;;;;;;;3.90;3.50;;;;;;;34.17;28.12;99523.50;5051496;28;20503;-73
2022/05/09 08:39:14;;;;;;;5.75;3.25;;;;;;;34.96;26.96;99525.53;5063086;28;20024;-76
2022/05/09 08:41:57;;;;;;;6.63;3.38;;;;;;;33.97;28.18;99530.72;5058709;28;20025;-72
2022/05/09 08:44:41;;;;;;;4.35;3.30;;;;;;;35.14;26.91;99521.38;5066080;28;20087;-74
2022/05/09 08:47:24;;;;;;;5.63;3.85;;;;;;;35.33;26.57;99530.03;5074686;28;20025;-76
2022/05/09 08:50:03;;;;;;;3.65;3.25;;;;;;;36.08;26.03;99536.44;5088136;28;20153;-72
2022/05/09 08:52:36;;;;;;;3.40;3.10;;;;;;;35.84;26.55;99529.66;5069572;28;20111;-71
2022/05/09 08:55:03;;;;;;;4.30;3.67;;;;;;;34.94;26.66;99537.13;5076772;28;20024;-75
2022/05/09 08:57:36;;;;;;;4.47;2.88;;;;;;;36.03;26.13;99528.22;5081240;28;20032;-75
2022/05/09 09:00:09;;;;;;;4.53;3.35;;;;;;;35.97;26.09;99541.72;5071024;28;20523;-77
2022/05/09 09:02:54;;;;;;;7.93;3.05;;;;;;;35.88;25.39;99533.41;5069373;28;20024;-76
2022/05/09 09:05:23;;;;;;;4.43;3.08;;;;;;;36.54;26.23;99525.69;5069263;28;20051;-75
2022/05/09 09:08:00;;;;;;;4.82;3.22;;;;;;;36.23;25.25;99527.22;5064384;28;20033;-76
2022/05/09 09:10:50;;;;;;;4.30;3.42;;;;;;;35.63;25.92;99527.00;5063108;28;20105;-73
2022/05/09 09:13:37;;;;;;;4.68;3.30;;;;;;;34.19;27.15;99526.78;5061341;28;20396;-73
2022/05/09 09:16:26;;;;;;;5.10;3.33;;;;;;;32.30;30.84;99523.28;5061234;28;20033;-72
2022/05/09 09:19:09;;;;;;;4.55;3.38;;;;;;;33.12;30.29;99520.50;5066691;28;20033;-75
2022/05/09 09:21:45;;;;;;;4.97;3.25;;;;;;;34.97;27.51;99519.53;5068020;28;20055;-74
2022/05/09 09:24:22;;;;;;;4.28;3.20;;;;;;;35.88;26.02;99524.97;5064801;28;20028;-75
2022/05/09 09:27:09;;;;;;;6.63;3.63;;;;;;;35.25;27.15;99522.53;5069238;28;22392;-74
2022/05/09 09:29:39;;;;;;;4.03;3.17;;;;;;;35.95;24.87;99515.94;5058156;28;20174;-74
2022/05/09 09:32:21;;;;;;;4.07;3.10;;;;;;;36.36;24.90;99520.38;5071330;28;20032;-74
2022/05/09 09:35:13;;;;;;;3.85;3.10;;;;;;;36.80;24.32;99511.94;5063699;28;20033;-73
2022/05/09 09:37:56;;;;;;;5.65;3.08;;;;;;;36.62;24.06;99508.63;5059091;28;20036;-73
2022/05/09 09:40:21;;;;;;;4.28;2.72;;;;;;;36.12;25.50;99498.75;5093120;22;20080;-68
2022/05/09 09:42:52;;;;;;;4.47;2.95;;;;;;;35.49;25.34;99516.06;5037435;28;20021;-69
2022/05/09 09:45:29;;;;;;;4.60;2.90;;;;;;;35.45;25.57;99517.97;5035622;28;20017;-69
2022/05/09 09:48:11;;;;;;;5.53;3.30;;;;;;;36.46;23.98;99521.84;5029562;28;20030;-68
2022/05/09 09:50:37;;;;;;;3.45;2.70;;;;;;;33.09;25.36;99484.72;5031451;28;20033;-68
2022/05/09 09:53:03;;;;;;;4.88;2.70;;;;;;;35.04;24.93;99505.75;5029333;28;20107;-65
2022/05/09 09:55:37;;;;;;;5.70;2.80;;;;;;;34.50;25.94;99503.00;5032448;28;20116;-65
2022/05/09 09:58:26;;;;;;;4.45;2.70;;;;;;;35.95;24.55;99485.75;5028246;28;20091;-65
2022/05/09 10:01:05;;;;;;;3.72;2.97;;;;;;;36.41;24.86;99491.13;5033878;28;20028;-67
2022/05/09 10:03:33;;;;;;;3.80;2.65;;;;;;;36.88;24.55;99496.03;5029247;28;20033;-66
2022/05/09 10:05:59;;;;;;;6.20;3.35;;;;;;;35.69;24.82;99497.44;5015308;28;20856;-68
2022/05/09 10:08:38;;;;;;;6.40;2.80;;;;;;;35.00;26.76;99495.53;5027316;28;20108;-66
2022/05/09 10:11:22;;;;;;;5.85;2.78;;;;;;;36.08;25.60;99500.66;5028011;28;20031;-66
2022/05/09 10:13:59;;;;;;;3.10;2.75;;;;;;;37.41;23.76;99482.44;5029654;28;20029;-66
2022/05/09 10:16:45;;;;;;;2.55;2.30;;;;;;;35.01;22.91;99489.56;5028299;28;20064;-67
2022/05/09 10:19:27;;;;;;;5.07;2.55;;;;;;;35.68;23.25;99492.16;5028371;28;20017;-66
2022/05/09 10:24:48;;;;;;;3.67;2.53;;;;;;;37.93;21.82;99477.59;5026506;28;20435;-66
2022/05/09 10:27:34;;;;;;;3.83;2.83;;;;;;;36.92;24.12;99484.84;5027635;28;20036;-66
2022/05/09 10:30:07;;;;;;;4.95;3.03;;;;;;;37.94;23.96;99477.22;5028635;28;20587;-67
2022/05/09 10:32:51;;;;;;;4.90;2.50;;;;;;;38.07;23.63;99474.28;5029129;28;20080;-66
2022/05/09 10:35:36;;;;;;;6.00;2.72;;;;;;;37.88;22.41;99475.06;5027680;28;20041;-66
2022/05/09 10:38:11;;;;;;;3.47;2.35;;;;;;;36.72;24.42;99487.56;5020830;28;20232;-66
2022/05/09 10:40:42;;;;;;;6.32;2.42;;;;;;;37.44;22.86;99476.09;5024222;28;20025;-67
2022/05/09 10:43:28;;;;;;;3.22;2.58;;;;;;;35.23;23.61;99470.63;5020301;28;20795;-66
2022/05/09 10:45:54;;;;;;;3.38;2.53;;;;;;;34.56;25.83;99469.88;5028973;28;20037;-66
2022/05/09 10:48:29;;;;;;;3.63;2.60;;;;;;;32.86;27.23;99470.09;5025748;28;20028;-67
2022/05/09 10:51:16;;;;;;;3.88;2.55;;;;;;;33.47;27.20;99467.00;5027354;28;20564;-67
2022/05/09 10:53:54;;;;;;;5.00;3.05;;;;;;;33.69;26.59;99460.25;5022689;28;20479;-67
2022/05/09 10:56:41;;;;;;;3.40;2.47;;;;;;;32.27;28.15;99461.50;5017960;28;20095;-67
2022/05/09 10:59:16;;;;;;;4.90;2.63;;;;;;;29.49;31.09;99456.28;5024524;28;20026;-68
2022/05/09 11:01:50;;;;;;;6.28;3.30;;;;;;;27.95;31.90;99449.16;5022182;28;20469;-66
2022/05/09 11:04:16;;;;;;;5.55;3.17;;;;;;;27.28;33.65;99436.22;5029611;28;20049;-67
2022/05/09 11:07:00;;;;;;;4.38;2.97;;;;;;;27.15;34.22;99452.75;5025317;28;20039;-67
2022/05/09 11:10:08;;;;;;;6.95;2.83;;;;;;;28.53;32.20;99439.56;5026246;28;20029;-67
2022/05/09 11:12:36;;;;;;;3.50;2.72;;;;;;;30.17;30.03;99436.84;5029042;28;20037;-67
2022/05/09 11:15:36;;;;;;;6.10;2.55;;;;;;;32.52;26.26;99437.44;5027784;28;20418;-67
2022/05/09 11:18:20;;;;;;;3.78;2.50;;;;;;;34.65;23.22;99431.31;5024767;28;20033;-67
2022/05/09 11:20:56;;;;;;;6.50;2.80;;;;;;;34.56;23.35;99433.34;5024911;28;20056;-67
2022/05/09 11:23:56;;;;;;;3.25;2.80;;;;;;;33.36;25.16;99429.28;5029025;28;20036;-67
2022/05/09 11:26:30;;;;;;;5.85;2.55;;;;;;;33.17;25.26;99429.75;5029415;28;20034;-68
2022/05/09 11:29:07;;;;;;;3.33;2.58;;;;;;;33.87;25.38;99429.25;5025668;28;20029;-68
2022/05/09 11:31:48;;;;;;;5.68;3.30;;;;;;;34.65;24.08;99425.69;5028358;28;20022;-67
2022/05/09 11:34:30;;;;;;;3.45;2.50;;;;;;;36.50;23.61;99414.84;5029267;28;20073;-68
2022/05/09 11:37:07;;;;;;;4.45;2.50;;;;;;;34.86;24.18;99414.34;5027771;28;20090;-68
2022/05/09 11:39:51;;;;;;;2.95;2.35;;;;;;;34.14;26.05;99414.66;5025957;28;20554;-67
2022/05/09 11:45:24;;;;;;;3.83;2.33;;;;;;;35.07;24.69;99414.22;5022337;28;20044;-68
2022/05/09 11:48:08;;;;;;;3.92;2.45;;;;;;;35.71;24.36;99409.81;5027170;28;20037;-68
2022/05/09 11:51:07;;;;;;;5.50;2.60;;;;;;;36.06;22.99;99412.84;5029916;28;20036;-69
2022/05/09 11:53:37;;;;;;;3.33;2.08;;;;;;;37.38;22.23;99395.69;5032127;28;20024;-68